createdAt,value
2023-05-02T00:00:36.306Z,2.00
2023-05-02T00:03:04.161Z,1.90
2023-05-02T00:05:31.151Z,1.80
2023-05-02T00:07:58.385Z,1.60
2023-05-02T00:10:25.132Z,1.50
2023-05-02T00:12:51.802Z,1.90
2023-05-02T00:15:18.846Z,2.00
2023-05-02T00:17:46.106Z,1.90
2023-05-02T00:20:13.265Z,2.00
2023-05-02T00:22:40.283Z,1.80
2023-05-02T00:25:07.697Z,1.90
2023-05-02T00:27:34.620Z,1.90
2023-05-02T00:30:01.864Z,2.00
2023-05-02T00:32:29.703Z,1.80
2023-05-02T00:34:56.799Z,2.20
2023-05-02T00:37:26.026Z,1.80
2023-05-02T00:39:52.561Z,1.70
2023-05-02T00:42:20.015Z,1.70
2023-05-02T00:44:47.098Z,1.90
2023-05-02T00:47:14.479Z,1.50
2023-05-02T00:49:41.716Z,1.60
2023-05-02T00:52:08.860Z,1.80
2023-05-02T00:54:38.784Z,1.40
2023-05-02T00:57:06.161Z,1.70
2023-05-02T00:59:35.474Z,1.80
2023-05-02T01:02:29.913Z,1.70
2023-05-02T01:05:17.437Z,2.00
2023-05-02T01:10:57.423Z,1.80
2023-05-02T01:13:29.386Z,1.70
2023-05-02T01:15:56.940Z,1.60
2023-05-02T01:18:25.427Z,1.80
2023-05-02T01:20:57.463Z,1.80
2023-05-02T01:23:40.134Z,1.80
2023-05-02T01:26:15.630Z,1.90
2023-05-02T01:29:01.075Z,2.00
2023-05-02T01:31:39.786Z,1.50
2023-05-02T01:34:10.084Z,1.90
2023-05-02T01:36:39.183Z,1.50
2023-05-02T01:39:07.480Z,1.80
2023-05-02T01:41:34.949Z,1.70
2023-05-02T01:44:02.588Z,1.80
2023-05-02T01:46:40.288Z,1.70
2023-05-02T01:49:08.057Z,1.60
2023-05-02T01:51:36.276Z,2.10
2023-05-02T01:54:08.459Z,1.90
2023-05-02T01:56:37.023Z,1.90
2023-05-02T01:59:09.056Z,1.70
2023-05-02T02:01:36.657Z,1.90
2023-05-02T02:04:03.619Z,2.00
2023-05-02T02:06:31.582Z,2.00
2023-05-02T02:08:59.312Z,1.70
2023-05-02T02:11:29.751Z,2.00
2023-05-02T02:14:02.195Z,2.00
2023-05-02T02:16:31.610Z,1.90
2023-05-02T02:18:58.876Z,2.00
2023-05-02T02:21:27.090Z,1.80
2023-05-02T02:23:54.201Z,1.80
2023-05-02T02:26:22.062Z,1.80
2023-05-02T02:28:48.935Z,2.20
2023-05-02T02:31:16.056Z,1.80
2023-05-02T02:33:43.009Z,2.30
2023-05-02T02:36:24.617Z,2.20
2023-05-02T02:38:58.240Z,2.20
2023-05-02T02:41:36.513Z,1.80
2023-05-02T02:44:13.733Z,2.30
2023-05-02T02:47:06.159Z,2.00
2023-05-02T02:49:36.411Z,2.00
2023-05-02T02:54:37.861Z,1.80
2023-05-02T02:57:08.140Z,1.70
2023-05-02T02:59:37.675Z,2.10
2023-05-02T03:02:08.905Z,2.10
2023-05-02T03:04:38.187Z,2.10
2023-05-02T03:07:05.042Z,2.20
2023-05-02T03:09:42.563Z,2.10
2023-05-02T03:12:09.544Z,1.80
2023-05-02T03:14:37.983Z,1.70
2023-05-02T03:17:05.465Z,2.30
2023-05-02T03:19:32.847Z,2.40
2023-05-02T03:21:59.792Z,2.30
2023-05-02T03:24:29.617Z,2.40
2023-05-02T03:26:57.153Z,2.20
2023-05-02T03:29:24.764Z,2.50
2023-05-02T03:31:52.020Z,2.60
2023-05-02T03:34:22.093Z,2.30
2023-05-02T03:36:49.405Z,2.00
2023-05-02T03:39:16.565Z,2.50
2023-05-02T03:41:43.975Z,2.20
2023-05-02T03:44:12.036Z,2.50
2023-05-02T03:46:39.115Z,2.30
2023-05-02T03:49:07.259Z,2.50
2023-05-02T03:51:35.807Z,2.70
2023-05-02T03:54:03.149Z,2.40
2023-05-02T03:56:30.219Z,2.20
2023-05-02T03:59:03.922Z,2.50
2023-05-02T04:01:31.875Z,2.60
2023-05-02T04:04:00.138Z,2.60
2023-05-02T04:06:32.289Z,2.30
2023-05-02T04:09:02.666Z,2.60
2023-05-02T04:11:35.817Z,2.30
2023-05-02T04:14:04.607Z,2.80
2023-05-02T04:16:31.686Z,2.70
2023-05-02T04:18:59.338Z,2.90
2023-05-02T04:21:26.761Z,2.70
2023-05-02T04:23:53.745Z,2.60
2023-05-02T04:26:21.906Z,3.00
2023-05-02T04:28:54.641Z,2.40
2023-05-02T04:31:21.572Z,2.80
2023-05-02T04:33:49.162Z,2.60
2023-05-02T04:36:22.379Z,2.40
2023-05-02T04:38:50.139Z,3.00
2023-05-02T04:41:18.708Z,2.90
2023-05-02T04:43:51.962Z,2.80
2023-05-02T04:46:19.073Z,3.10
2023-05-02T04:48:46.544Z,3.00
2023-05-02T04:51:14.805Z,3.20
2023-05-02T04:53:44.395Z,3.10
2023-05-02T04:56:11.510Z,2.70
2023-05-02T04:58:38.690Z,2.90
2023-05-02T05:01:08.892Z,3.20
2023-05-02T05:03:36.700Z,2.80
2023-05-02T05:06:04.882Z,3.50
2023-05-02T05:08:32.914Z,3.30
2023-05-02T05:11:00.734Z,3.30
2023-05-02T05:13:28.669Z,3.00
2023-05-02T05:15:55.911Z,3.10
2023-05-02T05:18:27.115Z,3.10
2023-05-02T05:20:54.300Z,3.20
2023-05-02T05:23:21.336Z,3.30
2023-05-02T05:25:48.170Z,3.20
2023-05-02T05:28:18.785Z,3.40
2023-05-02T05:30:46.839Z,3.10
2023-05-02T05:33:18.087Z,3.20
2023-05-02T05:35:45.328Z,3.20
2023-05-02T05:38:12.275Z,3.30
2023-05-02T05:40:41.158Z,3.10
2023-05-02T05:43:09.032Z,2.80
2023-05-02T05:45:38.060Z,2.80
2023-05-02T05:48:06.080Z,3.10
2023-05-02T05:50:37.705Z,3.00
2023-05-02T05:53:04.733Z,2.90
2023-05-02T05:55:31.996Z,2.90
2023-05-02T05:57:59.779Z,3.00
2023-05-02T06:00:27.389Z,3.30
2023-05-02T06:02:54.648Z,2.90
2023-05-02T06:05:27.964Z,3.20
2023-05-02T06:07:54.880Z,3.10
2023-05-02T06:10:21.803Z,3.10
2023-05-02T06:12:49.334Z,2.60
2023-05-02T06:15:18.513Z,2.80
2023-05-02T06:17:45.679Z,3.10
2023-05-02T06:20:12.693Z,3.30
2023-05-02T06:22:40.348Z,3.30
2023-05-02T06:25:09.054Z,3.30
2023-05-02T06:27:35.992Z,3.10
2023-05-02T06:30:03.740Z,2.90
2023-05-02T06:32:32.223Z,3.20
2023-05-02T06:34:59.039Z,3.30
2023-05-02T06:37:25.912Z,3.20
2023-05-02T06:39:52.892Z,3.10
2023-05-02T06:42:19.739Z,3.30
2023-05-02T06:44:46.876Z,3.10
2023-05-02T06:47:13.688Z,3.30
2023-05-02T06:49:40.565Z,2.90
2023-05-02T06:52:07.566Z,3.10
2023-05-02T06:54:34.327Z,2.70
2023-05-02T06:57:02.373Z,2.80
2023-05-02T06:59:29.280Z,2.70
2023-05-02T07:01:56.212Z,2.90
2023-05-02T07:04:23.135Z,2.90
2023-05-02T07:06:50.015Z,3.10
2023-05-02T07:09:17.020Z,2.70
2023-05-02T07:11:44.170Z,2.90
2023-05-02T07:14:10.933Z,3.10
2023-05-02T07:16:37.759Z,2.90
2023-05-02T07:19:06.781Z,3.20
2023-05-02T07:21:33.814Z,2.80
2023-05-02T07:24:01.252Z,3.00
2023-05-02T07:26:28.522Z,3.10
2023-05-02T07:28:55.369Z,3.00
2023-05-02T07:31:22.406Z,2.80
2023-05-02T07:33:49.280Z,2.60
2023-05-02T07:36:16.290Z,2.90
2023-05-02T07:38:43.145Z,2.70
2023-05-02T07:41:10.078Z,3.40
2023-05-02T07:43:36.920Z,3.00
2023-05-02T07:46:05.747Z,2.80
2023-05-02T07:48:32.581Z,2.40
2023-05-02T07:51:09.544Z,2.80
2023-05-02T07:53:36.589Z,2.60
2023-05-02T07:56:04.672Z,2.80
2023-05-02T07:58:31.506Z,2.80
2023-05-02T08:00:58.339Z,2.40
2023-05-02T08:03:25.412Z,2.60
2023-05-02T08:05:52.509Z,2.90
2023-05-02T08:08:19.805Z,2.70
2023-05-02T08:10:46.685Z,2.50
2023-05-02T08:13:13.621Z,2.90
2023-05-02T08:15:40.768Z,2.80
2023-05-02T08:18:08.031Z,3.10
2023-05-02T08:20:35.052Z,2.80
2023-05-02T08:23:01.874Z,2.80
2023-05-02T08:25:30.088Z,3.20
2023-05-02T08:27:57.001Z,3.00
2023-05-02T08:30:24.789Z,3.30
2023-05-02T08:32:51.705Z,2.80
2023-05-02T08:35:18.958Z,3.10
2023-05-02T08:37:46.281Z,3.00
2023-05-02T08:40:13.566Z,3.40
2023-05-02T08:42:42.142Z,3.00
2023-05-02T08:45:09.594Z,2.80
2023-05-02T08:47:36.931Z,3.60
2023-05-02T08:50:05.752Z,3.30
2023-05-02T08:52:32.981Z,3.10
2023-05-02T08:55:02.196Z,2.80
2023-05-02T08:57:30.472Z,3.60
2023-05-02T08:59:57.238Z,3.10
2023-05-02T09:02:27.996Z,3.40
2023-05-02T09:04:56.208Z,3.90
2023-05-02T09:07:23.399Z,3.50
2023-05-02T09:09:50.495Z,3.70
2023-05-02T09:12:17.491Z,3.80
2023-05-02T09:14:45.292Z,3.80
2023-05-02T09:17:12.788Z,3.00
2023-05-02T09:19:39.969Z,3.70
2023-05-02T09:22:06.734Z,3.30
2023-05-02T09:24:33.743Z,3.00
2023-05-02T09:27:03.300Z,3.60
2023-05-02T09:29:35.895Z,3.30
2023-05-02T09:32:04.101Z,3.10
2023-05-02T09:34:31.935Z,3.10
2023-05-02T09:36:58.972Z,3.20
2023-05-02T09:39:29.087Z,2.70
2023-05-02T09:41:56.495Z,2.50
2023-05-02T09:44:24.506Z,2.50
2023-05-02T09:46:53.001Z,2.70
2023-05-02T09:49:20.297Z,2.40
2023-05-02T09:51:48.072Z,2.50
2023-05-02T09:54:32.315Z,2.60
2023-05-02T09:56:59.114Z,2.40
2023-05-02T09:59:25.994Z,2.40
2023-05-02T10:02:12.209Z,2.80
2023-05-02T10:04:39.488Z,2.40
2023-05-02T10:07:06.893Z,2.60
2023-05-02T10:09:35.083Z,2.50
2023-05-02T10:12:06.822Z,2.60
2023-05-02T10:14:37.921Z,2.60
2023-05-02T10:17:13.332Z,4.40
2023-05-02T10:19:56.965Z,2.30
2023-05-02T10:22:23.834Z,2.60
2023-05-02T10:24:50.752Z,2.30
2023-05-02T10:27:18.176Z,2.50
2023-05-02T10:29:46.161Z,2.40
2023-05-02T10:32:13.966Z,1.70
2023-05-02T10:34:41.011Z,2.00
2023-05-02T10:37:07.881Z,1.90
2023-05-02T10:39:34.754Z,2.20
2023-05-02T10:42:02.376Z,2.20
2023-05-02T10:44:36.282Z,2.00
2023-05-02T10:47:18.561Z,2.20
2023-05-02T10:49:52.642Z,2.10
2023-05-02T10:52:49.081Z,3.20
2023-05-02T10:55:23.250Z,2.20
2023-05-02T10:57:59.308Z,2.00
2023-05-02T11:00:33.776Z,2.00
2023-05-02T11:03:01.757Z,2.10
2023-05-02T11:05:28.946Z,2.40
2023-05-02T11:08:20.244Z,2.10
2023-05-02T11:10:49.046Z,2.20
2023-05-02T11:13:15.844Z,2.10
2023-05-02T11:15:42.667Z,1.70
2023-05-02T11:18:13.217Z,1.70
2023-05-02T11:20:44.442Z,2.20
2023-05-02T11:23:13.768Z,2.20
2023-05-02T11:28:37.024Z,2.20
2023-05-02T11:31:08.200Z,1.80
2023-05-02T11:33:35.194Z,1.90
2023-05-02T11:36:02.248Z,2.00
2023-05-02T11:38:37.327Z,1.80
2023-05-02T11:41:04.648Z,1.80
2023-05-02T11:43:32.630Z,1.90
2023-05-02T11:46:01.910Z,2.20
2023-05-02T11:48:29.481Z,1.80
2023-05-02T11:51:05.065Z,1.70
2023-05-02T11:53:32.998Z,1.80
2023-05-02T11:56:01.909Z,1.80
2023-05-02T11:58:30.307Z,1.90
2023-05-02T12:00:57.378Z,1.90
2023-05-02T12:03:28.870Z,2.00
2023-05-02T12:05:56.700Z,2.00
2023-05-02T12:08:24.788Z,1.90
2023-05-02T12:10:52.780Z,2.30
2023-05-02T12:13:20.870Z,1.90
2023-05-02T12:15:48.617Z,1.70
2023-05-02T12:18:15.507Z,1.90
2023-05-02T12:20:43.054Z,2.00
2023-05-02T12:23:10.838Z,2.30
2023-05-02T12:25:40.256Z,2.20
2023-05-02T12:28:07.800Z,1.80
2023-05-02T12:30:35.406Z,2.00
2023-05-02T12:33:02.874Z,2.20
2023-05-02T12:35:30.404Z,2.20
2023-05-02T12:38:10.901Z,2.00
2023-05-02T12:40:38.029Z,2.20
2023-05-02T12:43:06.805Z,2.20
2023-05-02T12:45:34.725Z,2.10
2023-05-02T12:48:21.257Z,2.10
2023-05-02T12:50:48.591Z,2.00
2023-05-02T12:53:15.899Z,2.20
2023-05-02T12:55:42.720Z,1.80
2023-05-02T12:58:10.971Z,2.50
2023-05-02T13:00:39.601Z,2.30
2023-05-02T13:03:07.081Z,2.70
2023-05-02T13:05:35.246Z,1.90
2023-05-02T13:08:02.630Z,2.20
2023-05-02T13:10:29.507Z,2.10
2023-05-02T13:12:56.648Z,2.10
2023-05-02T13:15:23.414Z,2.20
2023-05-02T13:17:51.041Z,2.20
2023-05-02T13:20:18.059Z,1.90
2023-05-02T13:22:44.979Z,2.20
2023-05-02T13:28:03.608Z,2.30
2023-05-02T13:30:30.690Z,2.50
2023-05-02T13:32:58.225Z,2.90
2023-05-02T13:35:25.005Z,2.40
2023-05-02T13:37:51.666Z,2.20
2023-05-02T13:40:18.342Z,2.60
2023-05-02T13:42:45.240Z,2.50
2023-05-02T13:45:12.231Z,2.70
2023-05-02T13:47:40.187Z,2.70
2023-05-02T13:50:08.715Z,2.30
2023-05-02T13:52:36.044Z,2.40
2023-05-02T13:55:03.334Z,2.50
2023-05-02T13:57:31.110Z,2.10
2023-05-02T13:59:58.116Z,2.40
2023-05-02T14:02:25.596Z,2.60
2023-05-02T14:04:52.529Z,2.40
2023-05-02T14:07:19.395Z,2.40
2023-05-02T14:09:46.548Z,2.30
2023-05-02T14:12:14.299Z,2.50
2023-05-02T14:14:41.044Z,2.60
2023-05-02T14:17:07.731Z,2.50
2023-05-02T14:19:35.294Z,2.30
2023-05-02T14:22:02.011Z,4.30
2023-05-02T14:24:29.374Z,2.60
2023-05-02T14:26:57.740Z,2.70
2023-05-02T14:29:24.405Z,3.20
2023-05-02T14:31:51.210Z,3.10
2023-05-02T14:34:18.059Z,2.30
2023-05-02T14:36:44.808Z,2.10
2023-05-02T14:39:12.140Z,2.00
2023-05-02T14:41:39.019Z,2.10
2023-05-02T14:44:05.859Z,1.90
2023-05-02T14:46:33.339Z,1.90
2023-05-02T14:49:00.490Z,2.10
2023-05-02T14:51:27.650Z,2.20
2023-05-02T14:53:54.393Z,2.20
2023-05-02T14:56:21.601Z,2.60
2023-05-02T14:58:48.240Z,2.10
2023-05-02T15:01:18.673Z,2.00
2023-05-02T15:04:03.375Z,1.70
2023-05-02T15:06:35.029Z,2.10
2023-05-02T15:09:02.096Z,2.00
2023-05-02T15:11:29.045Z,1.90
2023-05-02T15:13:57.486Z,1.70
2023-05-02T15:16:26.421Z,1.90
2023-05-02T15:18:53.143Z,1.80
2023-05-02T15:21:20.082Z,1.90
2023-05-02T15:23:47.119Z,1.60
2023-05-02T15:26:13.968Z,1.80
2023-05-02T15:28:40.858Z,1.90
2023-05-02T15:31:07.669Z,2.80
2023-05-02T15:33:34.451Z,2.50
2023-05-02T15:36:01.180Z,1.90
2023-05-02T15:38:27.992Z,2.10
2023-05-02T15:40:58.792Z,1.90
2023-05-02T15:43:25.962Z,2.10
2023-05-02T15:45:56.290Z,1.50
2023-05-02T15:48:23.939Z,2.10
2023-05-02T15:50:51.908Z,2.00
2023-05-02T15:53:18.929Z,2.20
2023-05-02T15:55:45.874Z,1.90
2023-05-02T15:58:13.138Z,1.90
2023-05-02T16:00:40.166Z,1.90
2023-05-02T16:03:07.108Z,2.00
2023-05-02T16:05:34.867Z,1.90
2023-05-02T16:08:02.094Z,2.40
2023-05-02T16:10:29.429Z,2.10
2023-05-02T16:12:57.100Z,3.30
2023-05-02T16:15:24.002Z,3.70
2023-05-02T16:17:50.873Z,5.30
2023-05-02T16:20:17.938Z,3.80
2023-05-02T16:22:46.248Z,3.40
2023-05-02T16:25:13.877Z,2.70
2023-05-02T16:27:40.694Z,2.80
2023-05-02T16:30:08.098Z,2.50
2023-05-02T16:32:37.280Z,2.90
2023-05-02T16:37:35.456Z,2.60
2023-05-02T16:40:05.156Z,2.40
2023-05-02T16:42:32.473Z,2.90
2023-05-02T16:44:59.465Z,3.10
2023-05-02T16:47:27.554Z,2.80
2023-05-02T16:49:55.329Z,3.60
2023-05-02T16:52:22.197Z,2.80
2023-05-02T16:54:49.486Z,3.10
2023-05-02T16:57:20.815Z,3.40
2023-05-02T16:59:48.961Z,2.90
2023-05-02T17:02:16.176Z,3.60
2023-05-02T17:04:43.167Z,3.70
2023-05-02T17:07:12.779Z,3.20
2023-05-02T17:12:08.010Z,3.00
2023-05-02T17:14:35.063Z,3.10
2023-05-02T17:17:02.581Z,3.40
2023-05-02T17:19:29.538Z,3.30
2023-05-02T17:21:57.285Z,3.50
2023-05-02T17:24:24.473Z,3.30
2023-05-02T17:26:51.686Z,3.30
2023-05-02T17:29:18.550Z,3.10
2023-05-02T17:31:45.318Z,3.00
2023-05-02T17:34:12.564Z,3.00
2023-05-02T17:36:43.135Z,3.30
2023-05-02T17:39:12.239Z,3.50
2023-05-02T17:41:38.996Z,3.30
2023-05-02T17:44:06.017Z,3.50
2023-05-02T17:46:33.084Z,3.40
2023-05-02T17:49:00.189Z,3.90
2023-05-02T17:51:27.055Z,3.80
2023-05-02T17:53:53.829Z,6.30
2023-05-02T17:56:20.675Z,2.00
2023-05-02T17:58:47.361Z,1.30
2023-05-02T18:01:14.239Z,1.20
2023-05-02T18:03:41.968Z,1.80
2023-05-02T18:06:14.495Z,1.30
2023-05-02T18:08:42.174Z,1.50
2023-05-02T18:11:18.978Z,1.50
2023-05-02T18:13:48.908Z,1.60
2023-05-02T18:16:16.391Z,1.70
2023-05-02T18:18:43.209Z,1.60
2023-05-02T18:21:11.070Z,1.70
2023-05-02T18:23:39.615Z,2.00
2023-05-02T18:26:13.576Z,1.80
2023-05-02T18:28:41.499Z,2.30
2023-05-02T18:31:16.835Z,2.10
2023-05-02T18:33:43.710Z,3.40
2023-05-02T18:36:10.712Z,4.10
2023-05-02T18:38:38.241Z,3.60
2023-05-02T18:41:05.551Z,3.50
2023-05-02T18:43:34.390Z,3.50
2023-05-02T18:46:01.370Z,3.20
2023-05-02T18:48:28.367Z,3.30
2023-05-02T18:50:57.992Z,3.70
2023-05-02T18:53:25.740Z,4.10
2023-05-02T18:55:53.579Z,3.70
2023-05-02T18:58:21.237Z,4.10
2023-05-02T19:00:48.179Z,3.30
2023-05-02T19:03:15.320Z,3.50
2023-05-02T19:05:43.716Z,4.00
2023-05-02T19:08:10.588Z,3.70
2023-05-02T19:10:37.940Z,3.40
2023-05-02T19:13:05.058Z,3.90
2023-05-02T19:15:33.236Z,3.90
2023-05-02T19:18:00.303Z,3.60
2023-05-02T19:20:28.674Z,3.30
2023-05-02T19:23:14.585Z,3.50
2023-05-02T19:25:43.242Z,3.60
2023-05-02T19:28:11.746Z,3.30
2023-05-02T19:30:42.708Z,3.00
2023-05-02T19:33:10.408Z,3.00
2023-05-02T19:35:37.233Z,3.00
2023-05-02T19:38:04.037Z,2.80
2023-05-02T19:40:31.527Z,3.20
2023-05-02T19:42:58.351Z,3.20
2023-05-02T19:45:25.412Z,2.80
2023-05-02T19:47:52.369Z,2.70
2023-05-02T19:50:19.446Z,3.00
2023-05-02T19:52:46.388Z,2.80
2023-05-02T19:55:15.489Z,3.00
2023-05-02T19:57:44.020Z,3.30
2023-05-02T20:00:12.566Z,3.10
2023-05-02T20:02:39.873Z,3.20
2023-05-02T20:05:07.810Z,2.80
2023-05-02T20:07:35.182Z,3.30
2023-05-02T20:10:04.098Z,3.60
2023-05-02T20:12:31.286Z,3.20
2023-05-02T20:14:58.163Z,3.00
2023-05-02T20:17:25.098Z,3.00
2023-05-02T20:19:52.255Z,3.20
2023-05-02T20:22:19.369Z,3.00
2023-05-02T20:24:47.337Z,4.30
2023-05-02T20:27:15.007Z,3.40
2023-05-02T20:29:41.931Z,3.10
2023-05-02T20:32:08.810Z,3.40
2023-05-02T20:34:35.787Z,3.10
2023-05-02T20:37:05.926Z,3.20
2023-05-02T20:39:32.663Z,3.50
2023-05-02T20:41:59.442Z,3.20
2023-05-02T20:44:26.341Z,3.10
2023-05-02T20:46:53.306Z,3.20
2023-05-02T20:49:20.792Z,3.10
2023-05-02T20:51:49.622Z,2.90
2023-05-02T20:54:17.650Z,3.20
2023-05-02T20:56:45.012Z,3.30
2023-05-02T20:59:11.860Z,3.10
2023-05-02T21:01:38.664Z,3.30
2023-05-02T21:04:05.889Z,3.70
2023-05-02T21:06:34.806Z,2.90
2023-05-02T21:09:02.386Z,2.70
2023-05-02T21:11:29.351Z,3.10
2023-05-02T21:13:56.001Z,2.80
2023-05-02T21:16:22.769Z,3.10
2023-05-02T21:18:49.537Z,2.90
2023-05-02T21:21:16.589Z,2.80
2023-05-02T21:23:43.880Z,3.20
2023-05-02T21:26:11.506Z,3.20
2023-05-02T21:28:38.731Z,2.80
2023-05-02T21:31:06.407Z,2.80
2023-05-02T21:33:33.539Z,2.80
2023-05-02T21:36:00.785Z,2.80
2023-05-02T21:38:27.544Z,2.90
2023-05-02T21:40:54.379Z,3.00
2023-05-02T21:43:21.474Z,2.80
2023-05-02T21:45:49.062Z,3.40
2023-05-02T21:48:16.747Z,3.00
2023-05-02T21:50:44.203Z,3.20
2023-05-02T21:53:11.530Z,3.60
2023-05-02T21:55:41.826Z,3.20
2023-05-02T21:58:09.617Z,3.50
2023-05-02T22:00:37.698Z,3.20
2023-05-02T22:03:10.869Z,3.50
2023-05-02T22:05:39.352Z,3.40
2023-05-02T22:08:10.398Z,3.00
2023-05-02T22:10:38.886Z,3.30
2023-05-02T22:13:08.945Z,3.00
2023-05-02T22:15:36.029Z,3.50
2023-05-02T22:18:06.120Z,3.20
2023-05-02T22:20:33.007Z,2.90
2023-05-02T22:23:00.454Z,2.90
2023-05-02T22:25:27.339Z,3.30
2023-05-02T22:27:54.930Z,3.10
2023-05-02T22:30:22.016Z,3.20
2023-05-02T22:32:48.838Z,3.30
2023-05-02T22:35:16.177Z,3.50
2023-05-02T22:37:43.016Z,3.40
2023-05-02T22:40:10.821Z,3.40
2023-05-02T22:42:37.744Z,3.10
2023-05-02T22:45:07.031Z,3.30
2023-05-02T22:47:34.110Z,3.70
2023-05-02T22:50:04.337Z,3.70
2023-05-02T22:52:37.174Z,3.40
2023-05-02T22:55:05.209Z,3.60
2023-05-02T22:57:32.017Z,3.70
2023-05-02T22:59:58.665Z,3.60
2023-05-02T23:02:26.142Z,3.90
2023-05-02T23:04:52.855Z,4.20
2023-05-02T23:07:19.535Z,4.30
2023-05-02T23:09:47.206Z,4.10
2023-05-02T23:12:14.263Z,4.30
2023-05-02T23:14:41.423Z,4.30
2023-05-02T23:17:08.342Z,4.40
2023-05-02T23:19:35.445Z,4.50
2023-05-02T23:22:02.360Z,4.50
2023-05-02T23:24:29.703Z,4.60
2023-05-02T23:26:56.957Z,4.90
2023-05-02T23:29:25.137Z,4.90
2023-05-02T23:31:53.866Z,5.50
2023-05-02T23:34:20.835Z,5.00
2023-05-02T23:36:47.774Z,5.10
2023-05-02T23:39:14.802Z,5.30
2023-05-02T23:41:41.907Z,4.90
2023-05-02T23:44:08.541Z,5.50
2023-05-02T23:46:35.465Z,4.90
2023-05-02T23:49:02.213Z,5.30
2023-05-02T23:51:31.169Z,5.40
2023-05-02T23:53:57.976Z,5.50
2023-05-02T23:56:25.535Z,5.50
2023-05-02T23:58:52.265Z,5.80
